sensor_id;sensor_type;location;lat;lon;timestamp;temperature;humidity
23550;DHT22;11953;49.010;8.608;2022-12-07T00:01:15;5.80;99.90
23550;DHT22;11953;49.010;8.608;2022-12-07T00:04:03;5.70;99.90
23550;DHT22;11953;49.010;8.608;2022-12-07T00:06:51;5.70;99.90
23550;DHT22;11953;49.010;8.608;2022-12-07T00:09:38;5.60;99.90
23550;DHT22;11953;49.010;8.608;2022-12-07T00:12:26;5.70;99.90
23550;DHT22;11953;49.010;8.608;2022-12-07T00:15:14;5.70;99.90
23550;DHT22;11953;49.010;8.608;2022-12-07T00:18:00;5.70;99.90
23550;DHT22;11953;49.010;8.608;2022-12-07T00:20:47;5.70;99.90
23550;DHT22;11953;49.010;8.608;2022-12-07T00:23:34;5.60;99.90
23550;DHT22;11953;49.010;8.608;2022-12-07T00:26:22;5.70;99.90
23550;DHT22;11953;49.010;8.608;2022-12-07T00:29:15;5.60;99.90
23550;DHT22;11953;49.010;8.608;2022-12-07T00:32:03;5.70;99.90
23550;DHT22;11953;49.010;8.608;2022-12-07T00:34:50;5.70;99.90
23550;DHT22;11953;49.010;8.608;2022-12-07T00:37:37;5.70;99.90
23550;DHT22;11953;49.010;8.608;2022-12-07T00:40:23;5.70;99.90
23550;DHT22;11953;49.010;8.608;2022-12-07T00:43:09;5.70;99.90
23550;DHT22;11953;49.010;8.608;2022-12-07T00:45:57;5.70;99.90
23550;DHT22;11953;49.010;8.608;2022-12-07T00:48:46;5.70;99.90
23550;DHT22;11953;49.010;8.608;2022-12-07T00:51:32;5.80;99.90
23550;DHT22;11953;49.010;8.608;2022-12-07T00:54:19;5.80;99.90
23550;DHT22;11953;49.010;8.608;2022-12-07T00:57:05;5.80;99.90
23550;DHT22;11953;49.010;8.608;2022-12-07T00:59:52;5.80;99.90
23550;DHT22;11953;49.010;8.608;2022-12-07T01:02:40;5.80;99.90
23550;DHT22;11953;49.010;8.608;2022-12-07T01:05:27;5.80;99.90
23550;DHT22;11953;49.010;8.608;2022-12-07T01:08:14;5.80;99.90
23550;DHT22;11953;49.010;8.608;2022-12-07T01:11:02;5.70;99.90
23550;DHT22;11953;49.010;8.608;2022-12-07T01:13:50;5.70;99.90
23550;DHT22;11953;49.010;8.608;2022-12-07T01:16:38;5.70;99.90
23550;DHT22;11953;49.010;8.608;2022-12-07T01:19:25;5.60;99.90
23550;DHT22;11953;49.010;8.608;2022-12-07T01:22:13;5.60;99.90
23550;DHT22;11953;49.010;8.608;2022-12-07T01:24:59;5.60;99.90
23550;DHT22;11953;49.010;8.608;2022-12-07T01:27:45;5.60;99.90
23550;DHT22;11953;49.010;8.608;2022-12-07T01:30:32;5.50;99.90
23550;DHT22;11953;49.010;8.608;2022-12-07T01:33:18;5.50;99.90
23550;DHT22;11953;49.010;8.608;2022-12-07T01:36:06;5.50;99.90
23550;DHT22;11953;49.010;8.608;2022-12-07T01:38:56;5.40;99.90
23550;DHT22;11953;49.010;8.608;2022-12-07T01:41:43;5.40;99.90
23550;DHT22;11953;49.010;8.608;2022-12-07T01:44:30;5.40;99.90
23550;DHT22;11953;49.010;8.608;2022-12-07T01:47:18;5.40;99.90
23550;DHT22;11953;49.010;8.608;2022-12-07T01:50:05;5.40;99.90
23550;DHT22;11953;49.010;8.608;2022-12-07T01:52:52;5.40;99.90
23550;DHT22;11953;49.010;8.608;2022-12-07T01:55:44;5.50;99.90
23550;DHT22;11953;49.010;8.608;2022-12-07T01:58:31;5.40;99.90
23550;DHT22;11953;49.010;8.608;2022-12-07T02:01:18;5.40;99.90
23550;DHT22;11953;49.010;8.608;2022-12-07T02:04:06;5.40;99.90
23550;DHT22;11953;49.010;8.608;2022-12-07T02:06:53;5.20;99.90
23550;DHT22;11953;49.010;8.608;2022-12-07T02:09:40;5.10;99.90
23550;DHT22;11953;49.010;8.608;2022-12-07T02:12:28;4.90;99.90
23550;DHT22;11953;49.010;8.608;2022-12-07T02:15:15;4.90;99.90
23550;DHT22;11953;49.010;8.608;2022-12-07T02:18:07;4.80;99.90
23550;DHT22;11953;49.010;8.608;2022-12-07T02:21:00;4.70;99.90
23550;DHT22;11953;49.010;8.608;2022-12-07T02:24:13;4.70;99.90
23550;DHT22;11953;49.010;8.608;2022-12-07T02:27:34;4.60;99.90
23550;DHT22;11953;49.010;8.608;2022-12-07T02:30:28;4.60;99.90
23550;DHT22;11953;49.010;8.608;2022-12-07T02:33:21;4.70;99.90
23550;DHT22;11953;49.010;8.608;2022-12-07T02:36:12;4.80;99.90
23550;DHT22;11953;49.010;8.608;2022-12-07T02:39:07;4.90;99.90
23550;DHT22;11953;49.010;8.608;2022-12-07T02:41:58;5.00;99.90
23550;DHT22;11953;49.010;8.608;2022-12-07T02:44:46;5.10;99.90
23550;DHT22;11953;49.010;8.608;2022-12-07T02:47:36;5.20;99.90
23550;DHT22;11953;49.010;8.608;2022-12-07T02:50:23;5.30;99.90
23550;DHT22;11953;49.010;8.608;2022-12-07T02:53:33;5.30;99.90
23550;DHT22;11953;49.010;8.608;2022-12-07T02:56:24;5.30;99.90
23550;DHT22;11953;49.010;8.608;2022-12-07T02:59:20;5.30;99.90
23550;DHT22;11953;49.010;8.608;2022-12-07T03:02:16;5.40;99.90
23550;DHT22;11953;49.010;8.608;2022-12-07T03:05:32;5.40;99.90
23550;DHT22;11953;49.010;8.608;2022-12-07T03:08:32;5.30;99.90
23550;DHT22;11953;49.010;8.608;2022-12-07T03:11:26;5.40;99.90
23550;DHT22;11953;49.010;8.608;2022-12-07T03:14:19;5.30;99.90
23550;DHT22;11953;49.010;8.608;2022-12-07T03:17:11;5.20;99.90
23550;DHT22;11953;49.010;8.608;2022-12-07T03:20:04;5.30;99.90
23550;DHT22;11953;49.010;8.608;2022-12-07T03:22:53;5.40;99.90
23550;DHT22;11953;49.010;8.608;2022-12-07T03:25:43;5.20;99.90
23550;DHT22;11953;49.010;8.608;2022-12-07T03:28:33;5.20;99.90
23550;DHT22;11953;49.010;8.608;2022-12-07T03:31:23;5.00;99.90
23550;DHT22;11953;49.010;8.608;2022-12-07T03:34:16;4.90;99.90
23550;DHT22;11953;49.010;8.608;2022-12-07T03:37:07;4.90;99.90
23550;DHT22;11953;49.010;8.608;2022-12-07T03:39:59;4.90;99.90
23550;DHT22;11953;49.010;8.608;2022-12-07T03:42:48;4.90;99.90
23550;DHT22;11953;49.010;8.608;2022-12-07T03:45:39;5.00;99.90
23550;DHT22;11953;49.010;8.608;2022-12-07T03:48:30;5.10;99.90
23550;DHT22;11953;49.010;8.608;2022-12-07T03:51:22;5.20;99.90
23550;DHT22;11953;49.010;8.608;2022-12-07T03:54:13;5.20;99.90
23550;DHT22;11953;49.010;8.608;2022-12-07T03:57:04;5.10;99.90
23550;DHT22;11953;49.010;8.608;2022-12-07T03:59:53;5.00;99.90
23550;DHT22;11953;49.010;8.608;2022-12-07T04:02:41;5.00;99.90
23550;DHT22;11953;49.010;8.608;2022-12-07T04:05:29;5.20;99.90
23550;DHT22;11953;49.010;8.608;2022-12-07T04:08:16;5.20;99.90
23550;DHT22;11953;49.010;8.608;2022-12-07T04:11:03;5.20;99.90
23550;DHT22;11953;49.010;8.608;2022-12-07T04:13:50;5.10;99.90
23550;DHT22;11953;49.010;8.608;2022-12-07T04:16:56;5.10;99.90
23550;DHT22;11953;49.010;8.608;2022-12-07T04:19:43;5.10;99.90
23550;DHT22;11953;49.010;8.608;2022-12-07T04:22:29;5.10;99.90
23550;DHT22;11953;49.010;8.608;2022-12-07T04:25:16;5.00;99.90
23550;DHT22;11953;49.010;8.608;2022-12-07T04:28:03;5.10;99.90
23550;DHT22;11953;49.010;8.608;2022-12-07T04:30:50;5.00;99.90
23550;DHT22;11953;49.010;8.608;2022-12-07T04:33:37;5.00;99.90
23550;DHT22;11953;49.010;8.608;2022-12-07T04:36:24;5.10;99.90
23550;DHT22;11953;49.010;8.608;2022-12-07T04:39:18;5.10;99.90
23550;DHT22;11953;49.010;8.608;2022-12-07T04:42:05;5.00;99.90
23550;DHT22;11953;49.010;8.608;2022-12-07T04:44:52;5.00;99.90
23550;DHT22;11953;49.010;8.608;2022-12-07T04:47:39;4.90;99.90
23550;DHT22;11953;49.010;8.608;2022-12-07T04:50:26;4.90;99.90
23550;DHT22;11953;49.010;8.608;2022-12-07T04:53:12;5.00;99.90
23550;DHT22;11953;49.010;8.608;2022-12-07T04:55:59;4.90;99.90
23550;DHT22;11953;49.010;8.608;2022-12-07T04:58:47;4.90;99.90
23550;DHT22;11953;49.010;8.608;2022-12-07T05:01:34;4.90;99.90
23550;DHT22;11953;49.010;8.608;2022-12-07T05:04:21;4.90;99.90
23550;DHT22;11953;49.010;8.608;2022-12-07T05:07:08;4.90;99.90
23550;DHT22;11953;49.010;8.608;2022-12-07T05:09:54;5.00;99.90
23550;DHT22;11953;49.010;8.608;2022-12-07T05:12:41;4.90;99.90
23550;DHT22;11953;49.010;8.608;2022-12-07T05:15:27;5.00;99.90
23550;DHT22;11953;49.010;8.608;2022-12-07T05:18:13;4.90;99.90
23550;DHT22;11953;49.010;8.608;2022-12-07T05:21:01;4.90;99.90
23550;DHT22;11953;49.010;8.608;2022-12-07T05:23:48;4.90;99.90
23550;DHT22;11953;49.010;8.608;2022-12-07T05:26:34;4.90;99.90
23550;DHT22;11953;49.010;8.608;2022-12-07T05:29:21;4.90;99.90
23550;DHT22;11953;49.010;8.608;2022-12-07T05:32:07;4.90;99.90
23550;DHT22;11953;49.010;8.608;2022-12-07T05:34:54;4.90;99.90
23550;DHT22;11953;49.010;8.608;2022-12-07T05:37:42;4.80;99.90
23550;DHT22;11953;49.010;8.608;2022-12-07T05:40:29;4.80;99.90
23550;DHT22;11953;49.010;8.608;2022-12-07T05:43:15;4.80;99.90
23550;DHT22;11953;49.010;8.608;2022-12-07T05:46:02;4.80;99.90
23550;DHT22;11953;49.010;8.608;2022-12-07T05:48:48;4.80;99.90
23550;DHT22;11953;49.010;8.608;2022-12-07T05:51:35;4.80;99.90
23550;DHT22;11953;49.010;8.608;2022-12-07T05:54:22;4.80;99.90
23550;DHT22;11953;49.010;8.608;2022-12-07T05:57:09;4.80;99.90
23550;DHT22;11953;49.010;8.608;2022-12-07T05:59:56;4.90;99.90
23550;DHT22;11953;49.010;8.608;2022-12-07T06:02:41;4.90;99.90
23550;DHT22;11953;49.010;8.608;2022-12-07T06:05:28;5.00;99.90
23550;DHT22;11953;49.010;8.608;2022-12-07T06:08:14;5.00;99.90
23550;DHT22;11953;49.010;8.608;2022-12-07T06:11:03;4.90;99.90
23550;DHT22;11953;49.010;8.608;2022-12-07T06:14:07;4.80;99.90
23550;DHT22;11953;49.010;8.608;2022-12-07T06:16:54;4.70;99.90
23550;DHT22;11953;49.010;8.608;2022-12-07T06:19:41;4.80;99.90
23550;DHT22;11953;49.010;8.608;2022-12-07T06:22:27;4.80;99.90
23550;DHT22;11953;49.010;8.608;2022-12-07T06:25:15;4.70;99.90
23550;DHT22;11953;49.010;8.608;2022-12-07T06:28:02;4.60;99.90
23550;DHT22;11953;49.010;8.608;2022-12-07T06:30:57;4.70;99.90
23550;DHT22;11953;49.010;8.608;2022-12-07T06:33:44;4.70;99.90
23550;DHT22;11953;49.010;8.608;2022-12-07T06:36:30;4.80;99.90
23550;DHT22;11953;49.010;8.608;2022-12-07T06:39:20;4.70;99.90
23550;DHT22;11953;49.010;8.608;2022-12-07T06:42:07;4.90;99.90
23550;DHT22;11953;49.010;8.608;2022-12-07T06:44:54;4.90;99.90
23550;DHT22;11953;49.010;8.608;2022-12-07T06:47:41;4.90;99.90
23550;DHT22;11953;49.010;8.608;2022-12-07T06:50:29;4.90;99.90
23550;DHT22;11953;49.010;8.608;2022-12-07T06:53:16;4.90;99.90
23550;DHT22;11953;49.010;8.608;2022-12-07T06:56:03;4.90;99.90
23550;DHT22;11953;49.010;8.608;2022-12-07T06:58:50;4.90;99.90
23550;DHT22;11953;49.010;8.608;2022-12-07T07:01:38;4.90;99.90
23550;DHT22;11953;49.010;8.608;2022-12-07T07:04:25;4.90;99.90
23550;DHT22;11953;49.010;8.608;2022-12-07T07:07:11;5.00;99.90
23550;DHT22;11953;49.010;8.608;2022-12-07T07:09:57;5.00;99.90
23550;DHT22;11953;49.010;8.608;2022-12-07T07:12:45;4.90;99.90
23550;DHT22;11953;49.010;8.608;2022-12-07T07:15:32;5.00;99.90
23550;DHT22;11953;49.010;8.608;2022-12-07T07:18:20;4.90;99.90
23550;DHT22;11953;49.010;8.608;2022-12-07T07:21:07;4.90;99.90
23550;DHT22;11953;49.010;8.608;2022-12-07T07:23:53;4.90;99.90
23550;DHT22;11953;49.010;8.608;2022-12-07T07:26:39;5.00;99.90
23550;DHT22;11953;49.010;8.608;2022-12-07T07:29:26;4.90;99.90
23550;DHT22;11953;49.010;8.608;2022-12-07T07:32:12;4.90;99.90
23550;DHT22;11953;49.010;8.608;2022-12-07T07:35:00;4.80;99.90
23550;DHT22;11953;49.010;8.608;2022-12-07T07:37:47;4.80;99.90
23550;DHT22;11953;49.010;8.608;2022-12-07T07:40:33;4.80;99.90
23550;DHT22;11953;49.010;8.608;2022-12-07T07:43:20;4.80;99.90
23550;DHT22;11953;49.010;8.608;2022-12-07T07:46:06;4.90;99.90
23550;DHT22;11953;49.010;8.608;2022-12-07T07:48:53;5.00;99.90
23550;DHT22;11953;49.010;8.608;2022-12-07T07:51:41;4.90;99.90
23550;DHT22;11953;49.010;8.608;2022-12-07T07:54:28;5.00;99.90
23550;DHT22;11953;49.010;8.608;2022-12-07T07:57:15;5.00;99.90
23550;DHT22;11953;49.010;8.608;2022-12-07T08:00:03;4.90;99.90
23550;DHT22;11953;49.010;8.608;2022-12-07T08:02:56;5.00;99.90
23550;DHT22;11953;49.010;8.608;2022-12-07T08:05:44;5.00;99.90
23550;DHT22;11953;49.010;8.608;2022-12-07T08:08:31;5.10;99.90
23550;DHT22;11953;49.010;8.608;2022-12-07T08:11:18;5.10;99.90
23550;DHT22;11953;49.010;8.608;2022-12-07T08:14:05;5.00;99.90
23550;DHT22;11953;49.010;8.608;2022-12-07T08:16:51;5.00;99.90
23550;DHT22;11953;49.010;8.608;2022-12-07T08:19:38;4.90;99.90
23550;DHT22;11953;49.010;8.608;2022-12-07T08:22:25;4.80;99.90
23550;DHT22;11953;49.010;8.608;2022-12-07T08:25:13;4.80;99.90
23550;DHT22;11953;49.010;8.608;2022-12-07T08:28:00;4.80;99.90
23550;DHT22;11953;49.010;8.608;2022-12-07T08:30:47;4.60;99.90
23550;DHT22;11953;49.010;8.608;2022-12-07T08:33:35;4.70;99.90
23550;DHT22;11953;49.010;8.608;2022-12-07T08:36:21;4.70;99.90
23550;DHT22;11953;49.010;8.608;2022-12-07T08:39:08;4.70;99.90
23550;DHT22;11953;49.010;8.608;2022-12-07T08:42:16;4.70;99.90
23550;DHT22;11953;49.010;8.608;2022-12-07T08:45:05;4.70;99.90
23550;DHT22;11953;49.010;8.608;2022-12-07T08:47:55;4.80;99.90
23550;DHT22;11953;49.010;8.608;2022-12-07T08:50:43;4.90;99.90
23550;DHT22;11953;49.010;8.608;2022-12-07T08:53:35;5.00;99.90
23550;DHT22;11953;49.010;8.608;2022-12-07T08:56:22;5.10;99.90
23550;DHT22;11953;49.010;8.608;2022-12-07T08:59:14;5.10;99.90
23550;DHT22;11953;49.010;8.608;2022-12-07T09:02:01;5.10;99.90
23550;DHT22;11953;49.010;8.608;2022-12-07T09:04:48;5.10;99.90
23550;DHT22;11953;49.010;8.608;2022-12-07T09:07:34;5.10;99.90
23550;DHT22;11953;49.010;8.608;2022-12-07T09:10:21;5.10;99.90
23550;DHT22;11953;49.010;8.608;2022-12-07T09:13:09;5.20;99.90
23550;DHT22;11953;49.010;8.608;2022-12-07T09:15:57;5.30;99.90
23550;DHT22;11953;49.010;8.608;2022-12-07T09:18:43;5.30;99.90
23550;DHT22;11953;49.010;8.608;2022-12-07T09:21:30;5.30;99.90
23550;DHT22;11953;49.010;8.608;2022-12-07T09:24:17;5.40;99.90
23550;DHT22;11953;49.010;8.608;2022-12-07T09:27:03;5.30;99.90
23550;DHT22;11953;49.010;8.608;2022-12-07T09:29:50;5.30;99.90
23550;DHT22;11953;49.010;8.608;2022-12-07T09:32:38;5.20;99.90
23550;DHT22;11953;49.010;8.608;2022-12-07T09:35:25;5.10;99.90
23550;DHT22;11953;49.010;8.608;2022-12-07T09:38:11;5.20;99.90
23550;DHT22;11953;49.010;8.608;2022-12-07T09:41:04;5.30;99.90
23550;DHT22;11953;49.010;8.608;2022-12-07T09:43:52;5.20;99.90
23550;DHT22;11953;49.010;8.608;2022-12-07T09:46:41;5.20;99.90
23550;DHT22;11953;49.010;8.608;2022-12-07T09:49:31;5.20;99.90
23550;DHT22;11953;49.010;8.608;2022-12-07T09:52:19;5.20;99.90
23550;DHT22;11953;49.010;8.608;2022-12-07T09:55:12;5.30;99.90
23550;DHT22;11953;49.010;8.608;2022-12-07T09:57:59;5.50;99.90
23550;DHT22;11953;49.010;8.608;2022-12-07T10:00:45;5.50;99.90
23550;DHT22;11953;49.010;8.608;2022-12-07T10:03:31;5.60;99.90
23550;DHT22;11953;49.010;8.608;2022-12-07T10:06:20;5.50;99.90
23550;DHT22;11953;49.010;8.608;2022-12-07T10:09:11;5.50;99.90
23550;DHT22;11953;49.010;8.608;2022-12-07T10:12:09;5.50;99.90
23550;DHT22;11953;49.010;8.608;2022-12-07T10:15:00;5.40;99.90
23550;DHT22;11953;49.010;8.608;2022-12-07T10:18:03;5.50;99.90
23550;DHT22;11953;49.010;8.608;2022-12-07T10:21:01;5.70;99.90
23550;DHT22;11953;49.010;8.608;2022-12-07T10:24:02;5.60;99.90
23550;DHT22;11953;49.010;8.608;2022-12-07T10:26:51;5.60;99.90
23550;DHT22;11953;49.010;8.608;2022-12-07T10:29:39;5.70;99.90
23550;DHT22;11953;49.010;8.608;2022-12-07T10:32:31;5.70;99.90
23550;DHT22;11953;49.010;8.608;2022-12-07T10:35:21;5.70;99.90
23550;DHT22;11953;49.010;8.608;2022-12-07T10:38:16;5.70;99.90
23550;DHT22;11953;49.010;8.608;2022-12-07T10:41:05;5.60;99.90
23550;DHT22;11953;49.010;8.608;2022-12-07T10:43:54;5.60;99.90
23550;DHT22;11953;49.010;8.608;2022-12-07T10:46:57;5.70;99.90
23550;DHT22;11953;49.010;8.608;2022-12-07T10:50:17;5.50;99.90
23550;DHT22;11953;49.010;8.608;2022-12-07T10:53:24;5.60;99.90
23550;DHT22;11953;49.010;8.608;2022-12-07T11:00:00;5.60;99.90
23550;DHT22;11953;49.010;8.608;2022-12-07T11:03:08;5.60;99.90
23550;DHT22;11953;49.010;8.608;2022-12-07T11:06:10;5.50;99.90
23550;DHT22;11953;49.010;8.608;2022-12-07T11:09:26;5.50;99.90
23550;DHT22;11953;49.010;8.608;2022-12-07T11:12:57;5.40;99.90
23550;DHT22;11953;49.010;8.608;2022-12-07T11:19:18;5.50;99.90
23550;DHT22;11953;49.010;8.608;2022-12-07T11:22:16;5.50;99.90
23550;DHT22;11953;49.010;8.608;2022-12-07T11:25:21;5.50;99.90
23550;DHT22;11953;49.010;8.608;2022-12-07T11:28:40;5.50;99.90
23550;DHT22;11953;49.010;8.608;2022-12-07T11:31:38;5.50;99.90
23550;DHT22;11953;49.010;8.608;2022-12-07T11:34:37;5.50;99.90
23550;DHT22;11953;49.010;8.608;2022-12-07T11:37:31;5.50;99.90
23550;DHT22;11953;49.010;8.608;2022-12-07T11:40:26;5.60;99.90
23550;DHT22;11953;49.010;8.608;2022-12-07T11:43:20;5.50;99.90
23550;DHT22;11953;49.010;8.608;2022-12-07T11:46:11;5.50;99.90
23550;DHT22;11953;49.010;8.608;2022-12-07T11:49:07;5.40;99.90
23550;DHT22;11953;49.010;8.608;2022-12-07T11:51:59;5.40;99.90
23550;DHT22;11953;49.010;8.608;2022-12-07T11:54:49;5.50;99.90
23550;DHT22;11953;49.010;8.608;2022-12-07T11:57:44;5.50;99.90
23550;DHT22;11953;49.010;8.608;2022-12-07T12:00:34;5.50;99.90
23550;DHT22;11953;49.010;8.608;2022-12-07T12:03:25;5.60;99.90
23550;DHT22;11953;49.010;8.608;2022-12-07T12:06:15;5.50;99.90
23550;DHT22;11953;49.010;8.608;2022-12-07T12:09:05;5.50;99.90
23550;DHT22;11953;49.010;8.608;2022-12-07T12:12:39;5.50;99.90
23550;DHT22;11953;49.010;8.608;2022-12-07T12:16:08;5.60;99.90
23550;DHT22;11953;49.010;8.608;2022-12-07T12:19:16;5.70;99.90
23550;DHT22;11953;49.010;8.608;2022-12-07T12:22:12;5.80;99.90
23550;DHT22;11953;49.010;8.608;2022-12-07T12:25:04;5.70;99.90
23550;DHT22;11953;49.010;8.608;2022-12-07T12:27:52;5.80;99.90
23550;DHT22;11953;49.010;8.608;2022-12-07T12:30:41;5.80;99.90
23550;DHT22;11953;49.010;8.608;2022-12-07T12:33:29;6.00;99.90
23550;DHT22;11953;49.010;8.608;2022-12-07T12:36:22;6.10;99.90
23550;DHT22;11953;49.010;8.608;2022-12-07T12:39:12;6.00;99.90
23550;DHT22;11953;49.010;8.608;2022-12-07T12:42:00;6.00;99.90
23550;DHT22;11953;49.010;8.608;2022-12-07T12:45:18;6.00;99.90
23550;DHT22;11953;49.010;8.608;2022-12-07T12:48:27;6.00;99.90
23550;DHT22;11953;49.010;8.608;2022-12-07T12:51:40;6.00;99.90
23550;DHT22;11953;49.010;8.608;2022-12-07T12:54:29;6.00;99.90
23550;DHT22;11953;49.010;8.608;2022-12-07T12:57:20;6.00;99.90
23550;DHT22;11953;49.010;8.608;2022-12-07T13:00:17;6.00;99.90
23550;DHT22;11953;49.010;8.608;2022-12-07T13:03:04;6.00;99.90
23550;DHT22;11953;49.010;8.608;2022-12-07T13:06:18;5.90;99.90
23550;DHT22;11953;49.010;8.608;2022-12-07T13:09:19;5.90;99.90
23550;DHT22;11953;49.010;8.608;2022-12-07T13:12:13;5.90;99.90
23550;DHT22;11953;49.010;8.608;2022-12-07T13:15:00;5.90;99.90
23550;DHT22;11953;49.010;8.608;2022-12-07T13:18:01;5.90;99.90
23550;DHT22;11953;49.010;8.608;2022-12-07T13:20:55;6.00;99.90
23550;DHT22;11953;49.010;8.608;2022-12-07T13:23:54;6.00;99.90
23550;DHT22;11953;49.010;8.608;2022-12-07T13:26:43;6.00;99.90
23550;DHT22;11953;49.010;8.608;2022-12-07T13:29:36;6.10;99.90
23550;DHT22;11953;49.010;8.608;2022-12-07T13:32:25;5.90;99.90
23550;DHT22;11953;49.010;8.608;2022-12-07T13:35:30;6.00;99.90
23550;DHT22;11953;49.010;8.608;2022-12-07T13:38:23;6.10;99.90
23550;DHT22;11953;49.010;8.608;2022-12-07T13:41:14;6.20;99.90
23550;DHT22;11953;49.010;8.608;2022-12-07T13:44:08;6.20;99.90
23550;DHT22;11953;49.010;8.608;2022-12-07T13:46:59;6.10;99.90
23550;DHT22;11953;49.010;8.608;2022-12-07T13:49:50;6.00;99.90
23550;DHT22;11953;49.010;8.608;2022-12-07T13:52:44;5.90;99.90
23550;DHT22;11953;49.010;8.608;2022-12-07T13:55:31;5.70;99.90
23550;DHT22;11953;49.010;8.608;2022-12-07T13:58:19;5.70;99.90
23550;DHT22;11953;49.010;8.608;2022-12-07T14:01:07;5.80;99.90
23550;DHT22;11953;49.010;8.608;2022-12-07T14:03:54;5.80;99.90
23550;DHT22;11953;49.010;8.608;2022-12-07T14:06:48;5.80;99.90
23550;DHT22;11953;49.010;8.608;2022-12-07T14:09:34;5.70;99.90
23550;DHT22;11953;49.010;8.608;2022-12-07T14:12:21;5.70;99.90
23550;DHT22;11953;49.010;8.608;2022-12-07T14:15:20;5.70;99.90
23550;DHT22;11953;49.010;8.608;2022-12-07T14:18:27;5.60;99.90
23550;DHT22;11953;49.010;8.608;2022-12-07T14:21:15;5.50;99.90
23550;DHT22;11953;49.010;8.608;2022-12-07T14:24:15;5.60;99.90
23550;DHT22;11953;49.010;8.608;2022-12-07T14:27:03;5.60;99.90
23550;DHT22;11953;49.010;8.608;2022-12-07T14:29:49;5.60;99.90
23550;DHT22;11953;49.010;8.608;2022-12-07T14:32:37;5.60;99.90
23550;DHT22;11953;49.010;8.608;2022-12-07T14:35:27;5.60;99.90
23550;DHT22;11953;49.010;8.608;2022-12-07T14:38:14;5.60;99.90
23550;DHT22;11953;49.010;8.608;2022-12-07T14:41:01;5.70;99.90
23550;DHT22;11953;49.010;8.608;2022-12-07T14:44:04;5.70;99.90
23550;DHT22;11953;49.010;8.608;2022-12-07T14:47:09;5.60;99.90
23550;DHT22;11953;49.010;8.608;2022-12-07T14:50:18;5.60;99.90
23550;DHT22;11953;49.010;8.608;2022-12-07T14:53:11;5.60;99.90
23550;DHT22;11953;49.010;8.608;2022-12-07T14:56:14;5.60;99.90
23550;DHT22;11953;49.010;8.608;2022-12-07T14:59:00;5.70;99.90
23550;DHT22;11953;49.010;8.608;2022-12-07T15:01:47;5.70;99.90
23550;DHT22;11953;49.010;8.608;2022-12-07T15:04:33;5.70;99.90
23550;DHT22;11953;49.010;8.608;2022-12-07T15:07:21;5.70;99.90
23550;DHT22;11953;49.010;8.608;2022-12-07T15:10:15;5.70;99.90
23550;DHT22;11953;49.010;8.608;2022-12-07T15:13:08;5.80;99.90
23550;DHT22;11953;49.010;8.608;2022-12-07T15:16:14;5.80;99.90
23550;DHT22;11953;49.010;8.608;2022-12-07T15:19:03;5.80;99.90
23550;DHT22;11953;49.010;8.608;2022-12-07T15:22:09;5.80;99.90
23550;DHT22;11953;49.010;8.608;2022-12-07T15:24:56;5.90;99.90
23550;DHT22;11953;49.010;8.608;2022-12-07T15:27:44;5.80;99.90
23550;DHT22;11953;49.010;8.608;2022-12-07T15:30:31;5.70;99.90
23550;DHT22;11953;49.010;8.608;2022-12-07T15:33:17;5.80;99.90
23550;DHT22;11953;49.010;8.608;2022-12-07T15:36:04;5.80;99.90
23550;DHT22;11953;49.010;8.608;2022-12-07T15:38:51;5.80;99.90
23550;DHT22;11953;49.010;8.608;2022-12-07T15:41:58;5.80;99.90
23550;DHT22;11953;49.010;8.608;2022-12-07T15:44:47;5.70;99.90
23550;DHT22;11953;49.010;8.608;2022-12-07T15:47:52;5.70;99.90
23550;DHT22;11953;49.010;8.608;2022-12-07T15:51:03;5.60;99.90
23550;DHT22;11953;49.010;8.608;2022-12-07T15:53:51;5.40;99.90
23550;DHT22;11953;49.010;8.608;2022-12-07T15:56:38;5.30;99.90
23550;DHT22;11953;49.010;8.608;2022-12-07T15:59:26;5.20;99.90
23550;DHT22;11953;49.010;8.608;2022-12-07T16:02:14;5.30;99.90
23550;DHT22;11953;49.010;8.608;2022-12-07T16:05:02;5.30;99.90
23550;DHT22;11953;49.010;8.608;2022-12-07T16:07:49;5.30;99.90
23550;DHT22;11953;49.010;8.608;2022-12-07T16:10:36;5.30;99.90
23550;DHT22;11953;49.010;8.608;2022-12-07T16:13:22;5.30;99.90
23550;DHT22;11953;49.010;8.608;2022-12-07T16:16:12;5.30;99.90
23550;DHT22;11953;49.010;8.608;2022-12-07T16:19:01;5.40;99.90
23550;DHT22;11953;49.010;8.608;2022-12-07T16:21:48;5.30;99.90
23550;DHT22;11953;49.010;8.608;2022-12-07T16:24:34;5.20;99.90
23550;DHT22;11953;49.010;8.608;2022-12-07T16:27:21;5.10;99.90
23550;DHT22;11953;49.010;8.608;2022-12-07T16:30:08;5.20;99.90
23550;DHT22;11953;49.010;8.608;2022-12-07T16:32:55;5.10;99.90
23550;DHT22;11953;49.010;8.608;2022-12-07T16:35:48;5.20;99.90
23550;DHT22;11953;49.010;8.608;2022-12-07T16:38:36;5.30;99.90
23550;DHT22;11953;49.010;8.608;2022-12-07T16:41:22;5.30;99.90
23550;DHT22;11953;49.010;8.608;2022-12-07T16:44:11;5.30;99.90
23550;DHT22;11953;49.010;8.608;2022-12-07T16:46:58;5.30;99.90
23550;DHT22;11953;49.010;8.608;2022-12-07T16:49:46;5.30;99.90
23550;DHT22;11953;49.010;8.608;2022-12-07T16:52:34;5.30;99.90
23550;DHT22;11953;49.010;8.608;2022-12-07T16:55:20;5.40;99.90
23550;DHT22;11953;49.010;8.608;2022-12-07T16:58:08;5.30;99.90
23550;DHT22;11953;49.010;8.608;2022-12-07T17:00:54;5.30;99.90
23550;DHT22;11953;49.010;8.608;2022-12-07T17:03:42;5.30;99.90
23550;DHT22;11953;49.010;8.608;2022-12-07T17:06:29;5.30;99.90
23550;DHT22;11953;49.010;8.608;2022-12-07T17:09:17;5.30;99.90
23550;DHT22;11953;49.010;8.608;2022-12-07T17:12:05;5.30;99.90
23550;DHT22;11953;49.010;8.608;2022-12-07T17:14:52;5.30;99.90
23550;DHT22;11953;49.010;8.608;2022-12-07T17:17:57;5.20;99.90
23550;DHT22;11953;49.010;8.608;2022-12-07T17:20:44;5.10;99.90
23550;DHT22;11953;49.010;8.608;2022-12-07T17:23:31;5.20;99.90
23550;DHT22;11953;49.010;8.608;2022-12-07T17:26:21;5.10;99.90
23550;DHT22;11953;49.010;8.608;2022-12-07T17:29:10;5.10;99.90
23550;DHT22;11953;49.010;8.608;2022-12-07T17:31:57;5.00;99.90
23550;DHT22;11953;49.010;8.608;2022-12-07T17:34:44;5.00;99.90
23550;DHT22;11953;49.010;8.608;2022-12-07T17:37:31;5.10;99.90
23550;DHT22;11953;49.010;8.608;2022-12-07T17:40:18;5.10;99.90
23550;DHT22;11953;49.010;8.608;2022-12-07T17:43:05;5.10;99.90
23550;DHT22;11953;49.010;8.608;2022-12-07T17:45:52;5.20;99.90
23550;DHT22;11953;49.010;8.608;2022-12-07T17:48:39;5.20;99.90
23550;DHT22;11953;49.010;8.608;2022-12-07T17:51:25;5.10;99.90
23550;DHT22;11953;49.010;8.608;2022-12-07T17:54:29;5.10;99.90
23550;DHT22;11953;49.010;8.608;2022-12-07T17:57:16;5.10;99.90
23550;DHT22;11953;49.010;8.608;2022-12-07T18:00:05;5.10;99.90
23550;DHT22;11953;49.010;8.608;2022-12-07T18:02:58;5.10;99.90
23550;DHT22;11953;49.010;8.608;2022-12-07T18:05:45;5.20;99.90
23550;DHT22;11953;49.010;8.608;2022-12-07T18:08:34;5.30;99.90
23550;DHT22;11953;49.010;8.608;2022-12-07T18:11:23;5.20;99.90
23550;DHT22;11953;49.010;8.608;2022-12-07T18:14:10;5.20;99.90
23550;DHT22;11953;49.010;8.608;2022-12-07T18:16:57;5.20;99.90
23550;DHT22;11953;49.010;8.608;2022-12-07T18:19:44;5.20;99.90
23550;DHT22;11953;49.010;8.608;2022-12-07T18:22:30;5.10;99.90